createdAt,value
2022-12-26T00:04:49.027Z,58.59
2022-12-26T00:11:30.670Z,58.30
2022-12-26T00:18:16.082Z,58.12
2022-12-26T00:25:02.072Z,58.35
2022-12-26T00:31:50.697Z,58.09
2022-12-26T00:38:37.419Z,58.06
2022-12-26T00:45:22.590Z,58.09
2022-12-26T00:52:10.675Z,58.06
2022-12-26T00:58:56.185Z,57.89
2022-12-26T01:05:44.744Z,58.32
2022-12-26T01:12:33.099Z,58.03
2022-12-26T01:19:18.571Z,58.07
2022-12-26T01:26:15.754Z,57.91
2022-12-26T01:33:08.435Z,57.83
2022-12-26T01:39:55.408Z,57.97
2022-12-26T01:46:45.583Z,57.80
2022-12-26T01:53:38.835Z,57.84
2022-12-26T02:00:24.521Z,57.73
2022-12-26T02:07:10.357Z,57.43
2022-12-26T02:13:58.732Z,57.51
2022-12-26T02:21:03.371Z,57.51
2022-12-26T02:28:27.005Z,57.61
2022-12-26T02:35:28.356Z,57.53
2022-12-26T02:42:27.687Z,57.60
2022-12-26T02:49:23.180Z,57.44
2022-12-26T02:56:31.330Z,57.23
2022-12-26T03:03:33.985Z,57.21
2022-12-26T03:10:36.574Z,57.30
2022-12-26T03:17:31.346Z,57.04
2022-12-26T03:24:19.534Z,57.09
2022-12-26T03:31:10.680Z,56.80
2022-12-26T03:38:02.268Z,56.52
2022-12-26T04:05:25.193Z,55.67
2022-12-26T04:12:31.312Z,55.85
2022-12-26T04:19:40.603Z,55.80
2022-12-26T04:26:48.090Z,55.80
2022-12-26T04:33:56.947Z,55.88
2022-12-26T04:41:03.958Z,55.60
2022-12-26T04:48:05.426Z,55.36
2022-12-26T04:54:51.754Z,55.82
2022-12-26T05:01:49.947Z,55.95
2022-12-26T05:08:53.821Z,55.82
2022-12-26T05:16:01.983Z,55.84
2022-12-26T05:23:01.665Z,56.16
2022-12-26T05:29:49.710Z,56.25
2022-12-26T05:36:40.670Z,56.09
2022-12-26T05:43:26.168Z,56.28
2022-12-26T05:50:14.505Z,56.04
2022-12-26T05:57:00.209Z,56.27
2022-12-26T06:03:50.338Z,56.28
2022-12-26T06:10:38.837Z,56.24
2022-12-26T06:17:24.225Z,55.74
2022-12-26T06:24:10.501Z,55.62
2022-12-26T06:31:04.118Z,55.55
2022-12-26T06:37:49.640Z,55.68
2022-12-26T06:44:35.087Z,55.88
2022-12-26T06:51:26.695Z,56.34
2022-12-26T06:58:13.101Z,56.51
2022-12-26T07:04:58.505Z,56.35
2022-12-26T07:11:50.447Z,56.97
2022-12-26T07:18:35.815Z,57.16
2022-12-26T07:25:21.244Z,57.32
2022-12-26T07:32:09.931Z,57.42
2022-12-26T07:38:55.494Z,57.24
2022-12-26T07:45:45.658Z,57.55
2022-12-26T07:52:34.047Z,57.39
2022-12-26T07:59:21.477Z,57.34
2022-12-26T08:06:07.007Z,57.52
2022-12-26T08:12:54.917Z,57.64
2022-12-26T08:19:40.715Z,57.53
2022-12-26T08:26:26.081Z,57.31
2022-12-26T08:33:15.027Z,57.72
2022-12-26T08:40:00.483Z,57.40
2022-12-26T08:46:46.829Z,56.94
2022-12-26T08:53:36.963Z,57.47
2022-12-26T09:00:26.745Z,57.72
2022-12-26T09:07:12.576Z,57.82
2022-12-26T09:14:04.011Z,58.03
2022-12-26T09:20:49.411Z,58.08
2022-12-26T09:27:34.780Z,57.79
2022-12-26T09:34:22.742Z,57.62
2022-12-26T09:41:32.168Z,57.93
2022-12-26T09:48:23.719Z,57.74
2022-12-26T09:55:35.228Z,57.72
2022-12-26T10:02:24.981Z,58.00
2022-12-26T10:09:48.135Z,58.30
2022-12-26T10:16:51.632Z,58.53
2022-12-26T10:23:39.748Z,58.78
2022-12-26T10:30:28.793Z,58.90
2022-12-26T10:37:27.366Z,59.18
2022-12-26T10:44:15.279Z,59.02
2022-12-26T10:51:00.772Z,59.16
2022-12-26T10:57:54.370Z,58.99
2022-12-26T11:05:11.677Z,59.15
2022-12-26T11:11:48.605Z,58.70
2022-12-26T11:18:48.798Z,58.80
2022-12-26T11:25:38.964Z,58.96
2022-12-26T11:32:25.079Z,59.06
2022-12-26T11:39:26.847Z,58.96
2022-12-26T11:46:12.350Z,58.94
2022-12-26T11:53:10.253Z,58.55
2022-12-26T12:00:18.833Z,58.83
2022-12-26T12:07:15.917Z,58.59
2022-12-26T12:14:31.716Z,58.68
2022-12-26T12:21:32.169Z,58.22
2022-12-26T12:28:45.117Z,57.97
2022-12-26T12:35:52.196Z,57.85
2022-12-26T12:42:51.861Z,57.62
2022-12-26T12:49:53.794Z,57.92
2022-12-26T12:56:50.957Z,57.47
2022-12-26T13:03:48.385Z,57.36
2022-12-26T13:10:38.186Z,56.92
2022-12-26T13:17:29.915Z,56.80
2022-12-26T13:24:26.712Z,56.40
2022-12-26T13:31:12.852Z,56.42
2022-12-26T13:38:02.127Z,56.55
2022-12-26T13:44:53.620Z,56.14
2022-12-26T13:51:54.995Z,56.23
2022-12-26T13:58:55.290Z,56.12
2022-12-26T14:06:05.491Z,55.79
2022-12-26T14:13:06.952Z,55.47
2022-12-26T14:20:21.523Z,55.54
2022-12-26T14:27:34.788Z,55.28
2022-12-26T14:34:33.534Z,54.98
2022-12-26T14:41:35.194Z,55.13
2022-12-26T14:48:54.850Z,55.24
2022-12-26T14:55:53.086Z,55.06
2022-12-26T15:02:39.231Z,54.76
2022-12-26T15:10:05.714Z,54.70
2022-12-26T15:17:14.686Z,54.50
2022-12-26T15:25:21.312Z,54.63
2022-12-26T15:32:12.916Z,54.52
2022-12-26T15:39:06.460Z,54.49
2022-12-26T15:46:00.180Z,54.23
2022-12-26T15:53:05.375Z,54.37
2022-12-26T16:00:10.488Z,54.42
2022-12-26T16:07:26.324Z,54.08
2022-12-26T16:14:29.603Z,53.81
2022-12-26T16:21:36.601Z,54.05
2022-12-26T16:28:26.782Z,53.53
2022-12-26T16:35:25.766Z,53.93
2022-12-26T16:42:33.358Z,53.39
2022-12-26T16:49:18.807Z,52.76
2022-12-26T16:56:26.586Z,53.62
2022-12-26T17:03:27.147Z,54.01
2022-12-26T17:10:25.802Z,54.72
2022-12-26T17:17:36.407Z,55.05
2022-12-26T17:24:30.144Z,55.22
2022-12-26T17:31:21.824Z,55.45
2022-12-26T17:38:20.676Z,55.59
2022-12-26T17:45:06.563Z,55.30
2022-12-26T17:51:58.374Z,55.42
2022-12-26T17:58:50.172Z,55.76
2022-12-26T18:05:37.526Z,55.65
2022-12-26T18:12:23.201Z,55.54
2022-12-26T18:19:17.144Z,55.41
2022-12-26T18:26:05.581Z,55.50
2022-12-26T18:32:53.384Z,55.55
2022-12-26T18:39:41.432Z,55.74
2022-12-26T18:46:29.875Z,55.28
2022-12-26T18:53:15.884Z,55.10
2022-12-26T19:00:04.001Z,55.13
2022-12-26T19:06:49.435Z,54.56
2022-12-26T19:13:36.226Z,54.58
2022-12-26T19:20:26.560Z,54.28
2022-12-26T19:27:11.936Z,54.54
2022-12-26T19:34:01.550Z,54.50
2022-12-26T19:40:49.537Z,54.46
2022-12-26T19:47:35.069Z,54.36
2022-12-26T19:54:20.630Z,54.51
2022-12-26T20:01:15.558Z,54.29
2022-12-26T20:08:01.096Z,53.67
2022-12-26T20:14:46.868Z,53.67
2022-12-26T20:21:35.021Z,53.61
2022-12-26T20:28:20.376Z,53.04
2022-12-26T20:35:06.057Z,52.65
2022-12-26T20:41:54.202Z,52.13
2022-12-26T20:48:39.916Z,51.75
2022-12-26T20:55:25.243Z,51.12
2022-12-26T21:02:14.218Z,51.07
2022-12-26T21:09:01.168Z,50.55
2022-12-26T21:15:46.469Z,50.94
2022-12-26T21:22:34.501Z,51.10
2022-12-26T21:29:22.128Z,50.84
2022-12-26T21:36:13.509Z,51.05
2022-12-26T21:43:02.974Z,50.99
2022-12-26T21:49:48.487Z,50.90
2022-12-26T21:56:33.902Z,50.93
2022-12-26T22:03:34.441Z,50.82
2022-12-26T22:10:32.524Z,50.78
2022-12-26T22:17:18.107Z,50.66
2022-12-26T22:24:06.681Z,50.67
2022-12-26T22:30:53.145Z,50.62
2022-12-26T22:37:38.755Z,50.62
2022-12-26T22:44:27.249Z,50.71
2022-12-26T22:51:19.165Z,50.33
2022-12-26T22:58:04.539Z,50.39
2022-12-26T23:04:53.431Z,50.20
2022-12-26T23:11:39.722Z,50.17
2022-12-26T23:18:48.257Z,50.29
2022-12-26T23:25:37.932Z,50.16
2022-12-26T23:32:23.389Z,50.05
2022-12-26T23:39:08.846Z,50.02
2022-12-26T23:45:56.813Z,49.91
2022-12-26T23:52:43.089Z,49.65
2022-12-26T23:59:28.862Z,49.76
